RYR81CY EICK-LEVC
Flight info
| Callsign | RYR81CY |
|---|---|
| Flight time | N/A |
| Altitude | 35000 |
| Route | SOVIX1N SOVIX DCT MAPAG DCT TULTA/N0448F350 DCT NENEM P152 PPN DCT EXEMU DCT CMA/N0445F360 M176 MANDY |
| Aircraft | B738/M-SDE2E3FGHIRWXY/LB1 |
Departure
| Time | 2026-05-05 07:19 |
|---|---|
| Airport | Cork International Airport (EICK) |
Arrival
| Time | N/A |
|---|---|
| Airport | Valencia Airport (LEVC) |
| Time | Latitude | Longitude | Altitude | Speed | Heading |
|---|---|---|---|---|---|
| 2026-05-05 07:02 | 51.84757 | -8.49033 | 502 ft | 0 kts | 70° |
| 2026-05-05 07:11 | 51.84757 | -8.49037 | 502 ft | 0 kts | 44° |
| 2026-05-05 07:11 | 51.84749 | -8.49054 | 502 ft | 2 kts | 73° |
| 2026-05-05 07:11 | 51.84743 | -8.49072 | 502 ft | 2 kts | 33° |
| 2026-05-05 07:11 | 51.84728 | -8.49078 | 502 ft | 2 kts | 336° |
| 2026-05-05 07:12 | 51.84726 | -8.49077 | 502 ft | 0 kts | 328° |
| 2026-05-05 07:12 | 51.84726 | -8.49076 | 502 ft | 0 kts | 328° |
| 2026-05-05 07:13 | 51.84726 | -8.49077 | 502 ft | 0 kts | 328° |
| 2026-05-05 07:13 | 51.84726 | -8.49076 | 502 ft | 0 kts | 328° |
| 2026-05-05 07:14 | 51.84730 | -8.49082 | 502 ft | 2 kts | 319° |
| 2026-05-05 07:14 | 51.84734 | -8.49120 | 502 ft | 6 kts | 265° |
| 2026-05-05 07:15 | 51.84697 | -8.49156 | 502 ft | 9 kts | 175° |
| 2026-05-05 07:15 | 51.84590 | -8.49098 | 494 ft | 21 kts | 160° |
| 2026-05-05 07:15 | 51.84441 | -8.49010 | 487 ft | 23 kts | 160° |
| 2026-05-05 07:15 | 51.84349 | -8.49028 | 483 ft | 13 kts | 233° |
| 2026-05-05 07:16 | 51.84300 | -8.49157 | 476 ft | 14 kts | 220° |
| 2026-05-05 07:16 | 51.84178 | -8.49135 | 478 ft | 27 kts | 159° |
| 2026-05-05 07:16 | 51.83976 | -8.49018 | 468 ft | 33 kts | 160° |
| 2026-05-05 07:16 | 51.83763 | -8.48891 | 467 ft | 32 kts | 160° |
| 2026-05-05 07:17 | 51.83560 | -8.48772 | 469 ft | 30 kts | 159° |
| 2026-05-05 07:17 | 51.83376 | -8.48662 | 469 ft | 21 kts | 159° |
| 2026-05-05 07:17 | 51.83285 | -8.48534 | 471 ft | 10 kts | 129° |
| 2026-05-05 07:17 | 51.83255 | -8.48536 | 471 ft | 6 kts | 216° |
| 2026-05-05 07:18 | 51.83256 | -8.48589 | 471 ft | 2 kts | 317° |
| 2026-05-05 07:18 | 51.83292 | -8.48613 | 470 ft | 21 kts | 339° |
| 2026-05-05 07:18 | 51.83720 | -8.48867 | 467 ft | 105 kts | 339° |
| 2026-05-05 07:18 | 51.84618 | -8.49399 | 528 ft | 162 kts | 339° |
| 2026-05-05 07:19 | 51.85706 | -8.50010 | 1267 ft | 172 kts | 342° |
| 2026-05-05 07:19 | 51.86881 | -8.50621 | 2174 ft | 178 kts | 343° |
| 2026-05-05 07:19 | 51.88093 | -8.51310 | 2954 ft | 189 kts | 335° |
| 2026-05-05 07:19 | 51.89087 | -8.52801 | 3437 ft | 209 kts | 300° |
| 2026-05-05 07:20 | 51.89305 | -8.55152 | 4035 ft | 224 kts | 260° |
| 2026-05-05 07:20 | 51.88494 | -8.57435 | 4467 ft | 253 kts | 224° |
| 2026-05-05 07:20 | 51.87018 | -8.59019 | 5363 ft | 256 kts | 214° |
| 2026-05-05 07:20 | 51.85472 | -8.60611 | 6135 ft | 266 kts | 214° |
| 2026-05-05 07:21 | 51.83907 | -8.62238 | 6931 ft | 272 kts | 214° |
| 2026-05-05 07:21 | 51.82306 | -8.63917 | 7751 ft | 277 kts | 215° |
| 2026-05-05 07:21 | 51.80679 | -8.65641 | 8590 ft | 281 kts | 215° |
| 2026-05-05 07:21 | 51.79020 | -8.67415 | 9433 ft | 286 kts | 215° |
| 2026-05-05 07:22 | 51.77357 | -8.69207 | 10231 ft | 291 kts | 215° |
| 2026-05-05 07:22 | 51.75635 | -8.71066 | 10632 ft | 311 kts | 215° |
| 2026-05-05 07:22 | 51.73776 | -8.73075 | 10869 ft | 334 kts | 215° |
| 2026-05-05 07:22 | 51.71721 | -8.74989 | 11444 ft | 345 kts | 201° |
| 2026-05-05 07:23 | 51.70164 | -8.75543 | 11959 ft | 348 kts | 184° |
| 2026-05-05 07:23 | 51.67743 | -8.75093 | 12789 ft | 352 kts | 163° |
| 2026-05-05 07:23 | 51.65419 | -8.73758 | 13520 ft | 357 kts | 159° |
| 2026-05-05 07:23 | 51.63089 | -8.72268 | 14242 ft | 361 kts | 158° |
| 2026-05-05 07:24 | 51.60747 | -8.70757 | 14933 ft | 365 kts | 158° |
| 2026-05-05 07:24 | 51.58386 | -8.69257 | 15631 ft | 368 kts | 159° |
| 2026-05-05 07:24 | 51.55988 | -8.67762 | 16303 ft | 372 kts | 159° |
| 2026-05-05 07:24 | 51.53533 | -8.66250 | 16957 ft | 377 kts | 159° |
| 2026-05-05 07:25 | 51.51103 | -8.64762 | 17645 ft | 379 kts | 159° |
| 2026-05-05 07:25 | 51.48666 | -8.62988 | 18283 ft | 384 kts | 147° |
| 2026-05-05 07:25 | 51.46486 | -8.60557 | 18864 ft | 386 kts | 143° |
| 2026-05-05 07:25 | 51.44276 | -8.58010 | 19504 ft | 388 kts | 144° |
| 2026-05-05 07:26 | 51.41855 | -8.56163 | 19988 ft | 395 kts | 166° |
| 2026-05-05 07:26 | 51.39099 | -8.55563 | 20598 ft | 397 kts | 174° |
| 2026-05-05 07:26 | 51.36344 | -8.55183 | 21176 ft | 400 kts | 174° |
| 2026-05-05 07:26 | 51.33538 | -8.54818 | 21640 ft | 406 kts | 174° |
| 2026-05-05 07:27 | 51.30718 | -8.54445 | 22211 ft | 408 kts | 174° |
| 2026-05-05 07:27 | 51.27872 | -8.54054 | 22783 ft | 410 kts | 174° |
| 2026-05-05 07:27 | 51.25021 | -8.53649 | 23229 ft | 416 kts | 174° |
| 2026-05-05 07:27 | 51.22154 | -8.53234 | 23772 ft | 417 kts | 174° |
| 2026-05-05 07:28 | 51.19241 | -8.52809 | 24233 ft | 420 kts | 174° |
| 2026-05-05 07:28 | 51.16324 | -8.52382 | 24620 ft | 423 kts | 173° |
| 2026-05-05 07:28 | 51.13385 | -8.51951 | 25038 ft | 426 kts | 173° |
| 2026-05-05 07:28 | 51.10428 | -8.51519 | 25481 ft | 428 kts | 173° |
| 2026-05-05 07:29 | 51.07488 | -8.51090 | 25894 ft | 430 kts | 173° |
| 2026-05-05 07:29 | 51.04465 | -8.50649 | 26294 ft | 433 kts | 173° |
| 2026-05-05 07:29 | 51.01485 | -8.50216 | 26679 ft | 436 kts | 173° |
| 2026-05-05 07:29 | 50.98425 | -8.49747 | 27090 ft | 438 kts | 172° |
| 2026-05-05 07:30 | 50.95406 | -8.49152 | 27463 ft | 440 kts | 171° |
| 2026-05-05 07:30 | 50.89315 | -8.47781 | 28165 ft | 446 kts | 170° |
| 2026-05-05 07:30 | 50.86214 | -8.47074 | 28515 ft | 449 kts | 170° |
| 2026-05-05 07:31 | 50.83126 | -8.46381 | 28843 ft | 452 kts | 170° |
| 2026-05-05 07:31 | 50.79956 | -8.45680 | 29167 ft | 455 kts | 170° |
| 2026-05-05 07:31 | 50.76839 | -8.45000 | 29479 ft | 458 kts | 170° |
| 2026-05-05 07:31 | 50.73676 | -8.44317 | 29787 ft | 460 kts | 170° |
| 2026-05-05 07:32 | 50.70530 | -8.43641 | 30177 ft | 460 kts | 170° |
| 2026-05-05 07:32 | 50.67371 | -8.42966 | 30572 ft | 459 kts | 170° |
| 2026-05-05 07:32 | 50.64214 | -8.42292 | 30955 ft | 459 kts | 170° |
| 2026-05-05 07:32 | 50.61059 | -8.41619 | 31280 ft | 459 kts | 170° |
| 2026-05-05 07:33 | 50.57890 | -8.40944 | 31616 ft | 459 kts | 170° |
| 2026-05-05 07:33 | 50.54709 | -8.40267 | 31953 ft | 459 kts | 170° |
| 2026-05-05 07:33 | 50.51521 | -8.39588 | 32310 ft | 459 kts | 170° |
| 2026-05-05 07:33 | 50.48403 | -8.38926 | 32638 ft | 459 kts | 170° |
| 2026-05-05 07:34 | 50.45203 | -8.38247 | 32969 ft | 459 kts | 170° |
| 2026-05-05 07:34 | 50.42066 | -8.37583 | 33289 ft | 459 kts | 170° |
| 2026-05-05 07:34 | 50.38897 | -8.36912 | 33613 ft | 459 kts | 170° |
| 2026-05-05 07:34 | 50.35717 | -8.36240 | 33933 ft | 459 kts | 170° |
| 2026-05-05 07:35 | 50.32579 | -8.35578 | 34226 ft | 458 kts | 170° |
| 2026-05-05 07:35 | 50.29393 | -8.34906 | 34532 ft | 457 kts | 170° |
| 2026-05-05 07:35 | 50.26269 | -8.34249 | 34817 ft | 456 kts | 170° |
| 2026-05-05 07:35 | 50.23093 | -8.33582 | 35069 ft | 456 kts | 170° |
| 2026-05-05 07:36 | 50.16772 | -8.32254 | 35080 ft | 461 kts | 170° |
| 2026-05-05 07:36 | 50.10423 | -8.30927 | 35062 ft | 457 kts | 170° |
| 2026-05-05 07:37 | 50.04133 | -8.29616 | 35074 ft | 455 kts | 170° |
| 2026-05-05 07:37 | 49.97878 | -8.28314 | 35074 ft | 455 kts | 170° |
| 2026-05-05 07:38 | 49.91579 | -8.27006 | 35070 ft | 455 kts | 170° |
| 2026-05-05 07:38 | 49.85299 | -8.25706 | 35072 ft | 456 kts | 170° |
| 2026-05-05 07:39 | 49.79001 | -8.24405 | 35069 ft | 457 kts | 170° |
| 2026-05-05 07:39 | 49.72702 | -8.23108 | 35070 ft | 458 kts | 170° |
| 2026-05-05 07:40 | 49.66385 | -8.21810 | 35072 ft | 459 kts | 170° |
| 2026-05-05 07:40 | 49.60070 | -8.20517 | 35069 ft | 459 kts | 170° |
| 2026-05-05 07:41 | 49.53716 | -8.19219 | 35063 ft | 460 kts | 170° |
| 2026-05-05 07:41 | 49.47379 | -8.17928 | 35061 ft | 459 kts | 170° |
| 2026-05-05 07:42 | 49.41037 | -8.16639 | 35059 ft | 459 kts | 170° |
| 2026-05-05 07:42 | 49.34729 | -8.15360 | 35057 ft | 458 kts | 170° |
| 2026-05-05 07:43 | 49.28438 | -8.14088 | 35053 ft | 457 kts | 170° |
| 2026-05-05 07:43 | 49.22158 | -8.12822 | 35057 ft | 456 kts | 170° |
| 2026-05-05 07:44 | 49.15885 | -8.11560 | 35055 ft | 454 kts | 171° |
| 2026-05-05 07:44 | 49.09607 | -8.10300 | 35055 ft | 454 kts | 171° |
| 2026-05-05 07:45 | 49.03354 | -8.09048 | 35052 ft | 453 kts | 171° |
| 2026-05-05 07:45 | 48.97142 | -8.07808 | 35049 ft | 452 kts | 171° |
| 2026-05-05 07:46 | 48.90900 | -8.06565 | 35048 ft | 452 kts | 171° |
| 2026-05-05 07:46 | 48.84658 | -8.05325 | 35048 ft | 452 kts | 171° |
| 2026-05-05 07:47 | 48.78424 | -8.04089 | 35044 ft | 452 kts | 171° |
| 2026-05-05 07:47 | 48.72160 | -8.02850 | 35066 ft | 457 kts | 171° |
| 2026-05-05 07:48 | 48.65778 | -8.01591 | 35205 ft | 466 kts | 171° |
| 2026-05-05 07:48 | 48.62558 | -8.00950 | 35363 ft | 467 kts | 169° |
| 2026-05-05 07:48 | 48.59403 | -7.99815 | 35593 ft | 464 kts | 159° |
| 2026-05-05 07:49 | 48.56482 | -7.97962 | 35875 ft | 460 kts | 150° |
| 2026-05-05 07:49 | 48.53747 | -7.95498 | 36122 ft | 457 kts | 141° |
| 2026-05-05 07:49 | 48.51239 | -7.92562 | 36307 ft | 456 kts | 139° |
| 2026-05-05 07:49 | 48.48756 | -7.89569 | 36493 ft | 457 kts | 139° |
| 2026-05-05 07:50 | 48.46270 | -7.86559 | 36702 ft | 457 kts | 139° |
| 2026-05-05 07:50 | 48.43789 | -7.83568 | 36931 ft | 457 kts | 140° |
| 2026-05-05 07:50 | 48.41303 | -7.80589 | 37141 ft | 457 kts | 140° |
| 2026-05-05 07:50 | 48.38810 | -7.77621 | 37329 ft | 457 kts | 140° |
| 2026-05-05 07:51 | 48.36311 | -7.74658 | 37508 ft | 457 kts | 140° |
| 2026-05-05 07:51 | 48.33813 | -7.71709 | 37711 ft | 457 kts | 140° |
| 2026-05-05 07:51 | 48.31336 | -7.68790 | 37887 ft | 457 kts | 140° |
| 2026-05-05 07:51 | 48.28829 | -7.65842 | 38068 ft | 457 kts | 140° |
| 2026-05-05 07:52 | 48.26321 | -7.62896 | 38234 ft | 458 kts | 141° |
| 2026-05-05 07:52 | 48.23813 | -7.59955 | 38398 ft | 458 kts | 141° |
| 2026-05-05 07:52 | 48.21305 | -7.57017 | 38572 ft | 458 kts | 141° |
| 2026-05-05 07:52 | 48.18797 | -7.54082 | 38727 ft | 458 kts | 141° |
| 2026-05-05 07:53 | 48.16280 | -7.51140 | 38854 ft | 458 kts | 141° |
| 2026-05-05 07:53 | 48.13772 | -7.48213 | 38962 ft | 456 kts | 141° |
| 2026-05-05 07:53 | 48.08760 | -7.42373 | 39014 ft | 458 kts | 141° |
| 2026-05-05 07:54 | 48.03709 | -7.36503 | 39023 ft | 461 kts | 141° |
| 2026-05-05 07:54 | 47.98657 | -7.30646 | 39020 ft | 464 kts | 141° |
| 2026-05-05 07:55 | 47.93549 | -7.24741 | 39019 ft | 466 kts | 141° |
| 2026-05-05 07:55 | 47.88413 | -7.18818 | 39018 ft | 466 kts | 141° |
| 2026-05-05 07:56 | 47.83302 | -7.12940 | 39006 ft | 462 kts | 141° |
| 2026-05-05 07:56 | 47.78244 | -7.07138 | 39009 ft | 456 kts | 141° |
| 2026-05-05 07:57 | 47.73232 | -7.01401 | 39003 ft | 453 kts | 141° |
| 2026-05-05 07:57 | 47.68277 | -6.95743 | 39003 ft | 452 kts | 141° |
| 2026-05-05 07:58 | 47.63267 | -6.90037 | 39014 ft | 456 kts | 141° |
| 2026-05-05 07:58 | 47.58186 | -6.84265 | 39010 ft | 461 kts | 142° |
| 2026-05-05 07:59 | 47.53068 | -6.78465 | 39012 ft | 465 kts | 142° |
| 2026-05-05 07:59 | 47.47909 | -6.72634 | 39009 ft | 467 kts | 142° |
| 2026-05-05 08:00 | 47.42762 | -6.66832 | 38990 ft | 462 kts | 142° |
| 2026-05-05 08:00 | 47.37691 | -6.61131 | 38997 ft | 456 kts | 142° |
| 2026-05-05 08:01 | 47.32692 | -6.55523 | 38988 ft | 453 kts | 142° |
| 2026-05-05 08:01 | 47.27679 | -6.49913 | 38995 ft | 452 kts | 142° |
| 2026-05-05 08:02 | 47.22638 | -6.44285 | 39021 ft | 457 kts | 142° |
| 2026-05-05 08:02 | 47.17547 | -6.38615 | 39012 ft | 461 kts | 142° |
| 2026-05-05 08:03 | 47.12403 | -6.32901 | 38998 ft | 465 kts | 142° |
| 2026-05-05 08:03 | 47.07232 | -6.27171 | 38992 ft | 466 kts | 142° |
| 2026-05-05 08:04 | 47.02076 | -6.21472 | 38987 ft | 462 kts | 142° |
| 2026-05-05 08:04 | 46.96986 | -6.15861 | 38986 ft | 454 kts | 142° |
| 2026-05-05 08:05 | 46.91950 | -6.10321 | 38985 ft | 451 kts | 142° |
| 2026-05-05 08:05 | 46.86969 | -6.04855 | 38992 ft | 450 kts | 142° |
| 2026-05-05 08:06 | 46.81937 | -5.99347 | 38996 ft | 453 kts | 143° |
| 2026-05-05 08:06 | 46.76854 | -5.93796 | 38999 ft | 458 kts | 143° |
| 2026-05-05 08:07 | 46.72592 | -5.89152 | 38997 ft | 461 kts | 143° |
| 2026-05-05 08:07 | 46.67432 | -5.83542 | 38989 ft | 464 kts | 143° |
| 2026-05-05 08:08 | 46.62248 | -5.77920 | 38981 ft | 463 kts | 143° |
| 2026-05-05 08:08 | 46.57100 | -5.72350 | 38971 ft | 456 kts | 143° |
| 2026-05-05 08:09 | 46.52032 | -5.66880 | 38978 ft | 452 kts | 143° |
| 2026-05-05 08:09 | 46.47014 | -5.61477 | 38979 ft | 451 kts | 143° |
| 2026-05-05 08:10 | 46.41972 | -5.56060 | 38985 ft | 450 kts | 143° |
| 2026-05-05 08:10 | 46.36922 | -5.50649 | 38987 ft | 453 kts | 143° |
| 2026-05-05 08:11 | 46.31826 | -5.45201 | 38992 ft | 458 kts | 143° |
| 2026-05-05 08:11 | 46.26676 | -5.39707 | 38989 ft | 461 kts | 144° |
| 2026-05-05 08:12 | 46.21489 | -5.34188 | 38984 ft | 464 kts | 144° |
| 2026-05-05 08:12 | 46.16272 | -5.28650 | 38978 ft | 465 kts | 144° |
| 2026-05-05 08:13 | 46.11108 | -5.23180 | 38963 ft | 460 kts | 144° |
| 2026-05-05 08:13 | 46.05991 | -5.17774 | 38963 ft | 453 kts | 144° |
| 2026-05-05 08:14 | 46.00917 | -5.12427 | 38965 ft | 450 kts | 144° |
| 2026-05-05 08:14 | 45.95868 | -5.07118 | 38970 ft | 449 kts | 144° |
| 2026-05-05 08:15 | 45.90800 | -5.01801 | 38979 ft | 454 kts | 144° |
| 2026-05-05 08:15 | 45.85661 | -4.96423 | 38981 ft | 459 kts | 144° |
| 2026-05-05 08:16 | 45.80474 | -4.91006 | 38983 ft | 463 kts | 144° |
| 2026-05-05 08:16 | 45.75282 | -4.85598 | 38978 ft | 465 kts | 145° |
| 2026-05-05 08:17 | 45.70074 | -4.80184 | 38957 ft | 458 kts | 145° |
| 2026-05-05 08:17 | 45.64952 | -4.74871 | 38962 ft | 453 kts | 145° |
| 2026-05-05 08:18 | 45.59853 | -4.69597 | 38966 ft | 452 kts | 145° |
| 2026-05-05 08:18 | 45.54760 | -4.64340 | 38970 ft | 451 kts | 145° |
| 2026-05-05 08:19 | 45.49645 | -4.59074 | 38986 ft | 455 kts | 145° |
| 2026-05-05 08:19 | 45.44517 | -4.53806 | 38974 ft | 459 kts | 145° |
| 2026-05-05 08:20 | 45.39309 | -4.48468 | 38980 ft | 463 kts | 145° |
| 2026-05-05 08:20 | 45.34066 | -4.43105 | 38978 ft | 465 kts | 145° |
| 2026-05-05 08:21 | 45.28835 | -4.37767 | 38956 ft | 458 kts | 145° |
| 2026-05-05 08:21 | 45.23698 | -4.32536 | 38963 ft | 453 kts | 145° |
| 2026-05-05 08:22 | 45.18613 | -4.27372 | 38971 ft | 452 kts | 146° |
| 2026-05-05 08:22 | 45.13495 | -4.22186 | 38970 ft | 451 kts | 146° |
| 2026-05-05 08:23 | 45.08385 | -4.17020 | 38965 ft | 452 kts | 146° |
| 2026-05-05 08:23 | 45.03269 | -4.11859 | 38967 ft | 453 kts | 146° |
| 2026-05-05 08:24 | 44.98145 | -4.06701 | 38978 ft | 454 kts | 146° |
| 2026-05-05 08:24 | 44.92986 | -4.01521 | 38975 ft | 456 kts | 146° |
| 2026-05-05 08:25 | 44.87808 | -3.96332 | 38973 ft | 457 kts | 146° |
| 2026-05-05 08:25 | 44.82609 | -3.91134 | 38966 ft | 459 kts | 146° |
| 2026-05-05 08:26 | 44.77431 | -3.85968 | 38973 ft | 459 kts | 146° |
| 2026-05-05 08:26 | 44.72208 | -3.80770 | 38965 ft | 460 kts | 146° |
| 2026-05-05 08:27 | 44.66980 | -3.75578 | 38977 ft | 460 kts | 146° |
| 2026-05-05 08:27 | 44.61753 | -3.70398 | 38963 ft | 459 kts | 147° |
| 2026-05-05 08:28 | 44.56566 | -3.65270 | 38963 ft | 458 kts | 147° |
| 2026-05-05 08:28 | 44.51351 | -3.60125 | 38974 ft | 457 kts | 147° |
| 2026-05-05 08:29 | 44.46146 | -3.55003 | 38975 ft | 457 kts | 147° |
| 2026-05-05 08:30 | 44.38347 | -3.47347 | 38977 ft | 456 kts | 147° |
| 2026-05-05 08:30 | 44.33157 | -3.42267 | 38980 ft | 455 kts | 147° |
| 2026-05-05 08:31 | 44.27970 | -3.37201 | 38978 ft | 455 kts | 147° |
| 2026-05-05 08:31 | 44.22817 | -3.32179 | 38981 ft | 455 kts | 147° |
| 2026-05-05 08:32 | 44.17621 | -3.27126 | 38985 ft | 455 kts | 147° |
| 2026-05-05 08:32 | 44.12420 | -3.22078 | 38983 ft | 455 kts | 147° |
| 2026-05-05 08:33 | 44.07217 | -3.17039 | 38986 ft | 456 kts | 148° |
| 2026-05-05 08:33 | 44.02123 | -3.11754 | 38994 ft | 457 kts | 143° |
| 2026-05-05 08:34 | 43.97189 | -3.06138 | 38993 ft | 459 kts | 143° |
| 2026-05-05 08:34 | 43.92246 | -3.00515 | 38993 ft | 459 kts | 143° |
| 2026-05-05 08:35 | 43.87312 | -2.94959 | 38993 ft | 460 kts | 144° |
| 2026-05-05 08:35 | 43.82331 | -2.89379 | 38996 ft | 460 kts | 144° |
| 2026-05-05 08:36 | 43.77344 | -2.83804 | 38998 ft | 460 kts | 144° |
| 2026-05-05 08:36 | 43.72361 | -2.78243 | 38998 ft | 461 kts | 144° |
| 2026-05-05 08:37 | 43.67368 | -2.72673 | 38998 ft | 461 kts | 144° |
| 2026-05-05 08:37 | 43.62410 | -2.67161 | 39000 ft | 460 kts | 144° |
| 2026-05-05 08:38 | 43.57423 | -2.61636 | 39003 ft | 459 kts | 144° |
| 2026-05-05 08:38 | 43.52437 | -2.56121 | 39006 ft | 458 kts | 144° |
| 2026-05-05 08:39 | 43.47464 | -2.50632 | 39007 ft | 458 kts | 144° |
| 2026-05-05 08:39 | 43.42489 | -2.45150 | 39011 ft | 457 kts | 144° |
| 2026-05-05 08:40 | 43.37563 | -2.39735 | 39011 ft | 456 kts | 145° |
| 2026-05-05 08:40 | 43.32606 | -2.34298 | 39013 ft | 456 kts | 145° |
| 2026-05-05 08:41 | 43.27647 | -2.28870 | 39017 ft | 455 kts | 145° |
| 2026-05-05 08:41 | 43.22690 | -2.23456 | 39019 ft | 455 kts | 145° |
| 2026-05-05 08:42 | 43.17711 | -2.18028 | 39012 ft | 456 kts | 145° |
| 2026-05-05 08:42 | 43.12758 | -2.12639 | 39011 ft | 458 kts | 145° |
| 2026-05-05 08:43 | 43.07761 | -2.07216 | 39014 ft | 458 kts | 146° |
| 2026-05-05 08:43 | 43.02757 | -2.01803 | 39001 ft | 457 kts | 145° |
| 2026-05-05 08:44 | 42.97775 | -1.96423 | 39001 ft | 455 kts | 146° |
| 2026-05-05 08:44 | 42.92807 | -1.91065 | 39003 ft | 455 kts | 146° |
| 2026-05-05 08:45 | 42.87844 | -1.85726 | 38989 ft | 454 kts | 146° |
| 2026-05-05 08:45 | 42.82873 | -1.80383 | 38988 ft | 454 kts | 146° |
| 2026-05-05 08:46 | 42.77914 | -1.75061 | 38994 ft | 454 kts | 146° |
| 2026-05-05 08:46 | 42.72619 | -1.70668 | 38998 ft | 445 kts | 162° |
| 2026-05-05 08:47 | 42.66704 | -1.68584 | 39006 ft | 437 kts | 175° |
| 2026-05-05 08:47 | 42.60684 | -1.67308 | 38995 ft | 438 kts | 175° |
| 2026-05-05 08:48 | 42.54641 | -1.66023 | 38996 ft | 440 kts | 175° |
| 2026-05-05 08:48 | 42.48581 | -1.64701 | 38993 ft | 441 kts | 175° |
| 2026-05-05 08:49 | 42.42507 | -1.63361 | 38991 ft | 441 kts | 175° |
| 2026-05-05 08:49 | 42.36504 | -1.62034 | 38986 ft | 438 kts | 175° |
| 2026-05-05 08:50 | 42.30491 | -1.60709 | 39001 ft | 438 kts | 175° |
| 2026-05-05 08:50 | 42.24472 | -1.59387 | 38995 ft | 438 kts | 175° |
| 2026-05-05 08:51 | 42.18438 | -1.58064 | 38991 ft | 439 kts | 176° |
| 2026-05-05 08:51 | 42.12412 | -1.56745 | 38991 ft | 439 kts | 176° |
| 2026-05-05 08:52 | 42.06382 | -1.55427 | 38989 ft | 438 kts | 176° |
| 2026-05-05 08:52 | 42.00365 | -1.54115 | 38984 ft | 437 kts | 176° |
| 2026-05-05 08:53 | 41.94361 | -1.52808 | 38988 ft | 437 kts | 176° |
| 2026-05-05 08:53 | 41.88351 | -1.51503 | 38988 ft | 437 kts | 176° |
| 2026-05-05 08:54 | 41.82373 | -1.50207 | 38986 ft | 438 kts | 176° |
| 2026-05-05 08:54 | 41.76351 | -1.48904 | 38982 ft | 438 kts | 176° |
| 2026-05-05 08:55 | 41.71317 | -1.47816 | 38981 ft | 437 kts | 176° |
| 2026-05-05 08:55 | 41.65358 | -1.46530 | 38978 ft | 436 kts | 176° |
| 2026-05-05 08:56 | 41.59377 | -1.45242 | 38982 ft | 435 kts | 176° |
| 2026-05-05 08:56 | 41.53389 | -1.43956 | 38976 ft | 435 kts | 177° |
| 2026-05-05 08:57 | 41.47403 | -1.42673 | 38977 ft | 436 kts | 177° |
| 2026-05-05 08:57 | 41.41402 | -1.41389 | 38980 ft | 436 kts | 177° |
| 2026-05-05 08:58 | 41.35447 | -1.40116 | 38990 ft | 436 kts | 177° |
| 2026-05-05 08:58 | 41.29447 | -1.38835 | 38971 ft | 436 kts | 177° |
| 2026-05-05 08:59 | 41.23463 | -1.37563 | 38982 ft | 436 kts | 177° |
| 2026-05-05 08:59 | 41.17464 | -1.36291 | 38983 ft | 436 kts | 177° |
| 2026-05-05 09:00 | 41.11464 | -1.35021 | 38988 ft | 437 kts | 178° |
| 2026-05-05 09:00 | 41.05445 | -1.33748 | 38985 ft | 437 kts | 178° |
| 2026-05-05 09:01 | 40.99418 | -1.32476 | 38989 ft | 438 kts | 178° |
| 2026-05-05 09:01 | 40.93407 | -1.31210 | 38980 ft | 438 kts | 178° |
| 2026-05-05 09:02 | 40.87365 | -1.29942 | 38540 ft | 444 kts | 178° |
| 2026-05-05 09:02 | 40.84319 | -1.29239 | 37953 ft | 444 kts | 176° |
| 2026-05-05 09:02 | 40.81294 | -1.28389 | 37403 ft | 443 kts | 175° |
| 2026-05-05 09:02 | 40.78327 | -1.27529 | 36811 ft | 441 kts | 176° |
| 2026-05-05 09:03 | 40.75336 | -1.26686 | 36265 ft | 439 kts | 176° |
| 2026-05-05 09:03 | 40.72351 | -1.25867 | 35745 ft | 436 kts | 177° |
| 2026-05-05 09:03 | 40.69396 | -1.25062 | 35175 ft | 434 kts | 178° |
| 2026-05-05 09:03 | 40.66437 | -1.24260 | 34562 ft | 433 kts | 178° |
| 2026-05-05 09:04 | 40.63488 | -1.23461 | 33950 ft | 433 kts | 178° |
| 2026-05-05 09:04 | 40.60542 | -1.22666 | 33198 ft | 433 kts | 178° |
| 2026-05-05 09:04 | 40.57582 | -1.21866 | 32507 ft | 433 kts | 178° |
| 2026-05-05 09:04 | 40.54632 | -1.21068 | 31807 ft | 432 kts | 178° |
| 2026-05-05 09:05 | 40.51685 | -1.20270 | 31093 ft | 432 kts | 178° |
| 2026-05-05 09:05 | 40.48742 | -1.19475 | 30374 ft | 432 kts | 179° |
| 2026-05-05 09:05 | 40.45801 | -1.18681 | 29560 ft | 432 kts | 178° |
| 2026-05-05 09:05 | 40.42860 | -1.17887 | 28792 ft | 430 kts | 178° |
| 2026-05-05 09:06 | 40.39950 | -1.17098 | 28238 ft | 423 kts | 178° |
| 2026-05-05 09:06 | 40.37086 | -1.16320 | 27691 ft | 417 kts | 178° |
| 2026-05-05 09:06 | 40.34299 | -1.15567 | 27153 ft | 412 kts | 178° |
| 2026-05-05 09:06 | 40.31470 | -1.14805 | 26576 ft | 407 kts | 178° |
| 2026-05-05 09:07 | 40.28745 | -1.14073 | 26033 ft | 403 kts | 178° |
| 2026-05-05 09:07 | 40.26017 | -1.13342 | 25496 ft | 398 kts | 178° |
| 2026-05-05 09:07 | 40.23306 | -1.12616 | 24971 ft | 395 kts | 178° |
| 2026-05-05 09:07 | 40.20625 | -1.11899 | 24449 ft | 392 kts | 178° |
| 2026-05-05 09:08 | 40.17959 | -1.11187 | 23916 ft | 389 kts | 178° |
| 2026-05-05 09:08 | 40.15313 | -1.10480 | 23372 ft | 386 kts | 178° |
| 2026-05-05 09:08 | 40.12690 | -1.09779 | 22770 ft | 384 kts | 177° |
| 2026-05-05 09:08 | 40.10082 | -1.09083 | 22224 ft | 381 kts | 177° |
| 2026-05-05 09:09 | 40.07499 | -1.08394 | 21707 ft | 376 kts | 177° |
| 2026-05-05 09:09 | 40.04978 | -1.07720 | 21220 ft | 372 kts | 177° |
| 2026-05-05 09:09 | 40.02446 | -1.07046 | 20724 ft | 369 kts | 177° |
| 2026-05-05 09:09 | 39.99944 | -1.06379 | 20206 ft | 366 kts | 177° |
| 2026-05-05 09:10 | 39.97453 | -1.05716 | 19716 ft | 363 kts | 176° |
| 2026-05-05 09:10 | 39.94986 | -1.05046 | 19199 ft | 363 kts | 173° |
| 2026-05-05 09:10 | 39.92632 | -1.03699 | 18692 ft | 381 kts | 153° |
| 2026-05-05 09:10 | 39.90683 | -1.01263 | 18233 ft | 395 kts | 134° |
| 2026-05-05 09:11 | 39.89376 | -0.98071 | 17704 ft | 405 kts | 117° |
| 2026-05-05 09:11 | 39.88390 | -0.94647 | 17196 ft | 403 kts | 115° |
| 2026-05-05 09:11 | 39.87453 | -0.91217 | 16683 ft | 400 kts | 114° |
| 2026-05-05 09:11 | 39.86531 | -0.87815 | 16171 ft | 398 kts | 114° |
| 2026-05-05 09:12 | 39.85606 | -0.84434 | 15659 ft | 396 kts | 114° |
| 2026-05-05 09:12 | 39.84675 | -0.81072 | 15137 ft | 394 kts | 114° |
| 2026-05-05 09:12 | 39.83739 | -0.77731 | 14650 ft | 392 kts | 114° |
| 2026-05-05 09:12 | 39.82801 | -0.74409 | 14129 ft | 390 kts | 114° |
| 2026-05-05 09:13 | 39.81865 | -0.71109 | 13607 ft | 388 kts | 114° |
| 2026-05-05 09:13 | 39.81053 | -0.68251 | 13105 ft | 386 kts | 114° |
| 2026-05-05 09:13 | 39.80122 | -0.64983 | 12588 ft | 383 kts | 114° |
| 2026-05-05 09:13 | 39.79203 | -0.61759 | 12191 ft | 376 kts | 114° |
| 2026-05-05 09:14 | 39.78306 | -0.58610 | 11921 ft | 367 kts | 114° |
| 2026-05-05 09:14 | 39.77428 | -0.55535 | 11662 ft | 358 kts | 114° |
| 2026-05-05 09:14 | 39.76569 | -0.52530 | 11390 ft | 350 kts | 114° |
| 2026-05-05 09:14 | 39.75728 | -0.49591 | 11142 ft | 343 kts | 114° |
| 2026-05-05 09:15 | 39.74902 | -0.46717 | 10878 ft | 336 kts | 114° |
| 2026-05-05 09:15 | 39.74092 | -0.43899 | 10654 ft | 329 kts | 114° |
| 2026-05-05 09:15 | 39.73298 | -0.41135 | 10405 ft | 324 kts | 115° |
| 2026-05-05 09:15 | 39.72513 | -0.38413 | 10165 ft | 319 kts | 115° |
| 2026-05-05 09:16 | 39.71752 | -0.35765 | 9902 ft | 306 kts | 114° |
| 2026-05-05 09:16 | 39.71018 | -0.33213 | 9583 ft | 298 kts | 115° |
| 2026-05-05 09:16 | 39.70294 | -0.30713 | 9291 ft | 295 kts | 115° |
| 2026-05-05 09:16 | 39.69572 | -0.28215 | 9057 ft | 295 kts | 114° |
| 2026-05-05 09:17 | 39.68848 | -0.25720 | 8785 ft | 295 kts | 114° |
| 2026-05-05 09:17 | 39.68060 | -0.23276 | 8494 ft | 290 kts | 125° |
| 2026-05-05 09:17 | 39.66698 | -0.21446 | 8241 ft | 279 kts | 153° |
| 2026-05-05 09:17 | 39.64926 | -0.20545 | 8001 ft | 272 kts | 172° |
| 2026-05-05 09:18 | 39.63063 | -0.20220 | 7755 ft | 269 kts | 178° |
| 2026-05-05 09:18 | 39.61219 | -0.20047 | 7476 ft | 271 kts | 179° |
| 2026-05-05 09:18 | 39.59327 | -0.19891 | 7156 ft | 273 kts | 179° |
| 2026-05-05 09:18 | 39.57433 | -0.19727 | 6844 ft | 273 kts | 179° |
| 2026-05-05 09:19 | 39.55541 | -0.19552 | 6528 ft | 272 kts | 179° |
| 2026-05-05 09:19 | 39.53650 | -0.19370 | 6209 ft | 271 kts | 178° |
| 2026-05-05 09:19 | 39.51770 | -0.19184 | 5870 ft | 271 kts | 178° |
| 2026-05-05 09:19 | 39.49899 | -0.18996 | 5531 ft | 267 kts | 178° |
| 2026-05-05 09:20 | 39.48071 | -0.18810 | 5191 ft | 260 kts | 178° |
| 2026-05-05 09:20 | 39.46285 | -0.18628 | 4859 ft | 254 kts | 178° |
| 2026-05-05 09:20 | 39.44534 | -0.18450 | 4521 ft | 250 kts | 178° |
| 2026-05-05 09:20 | 39.42831 | -0.18500 | 4162 ft | 241 kts | 199° |
| 2026-05-05 09:21 | 39.41448 | -0.19548 | 3892 ft | 228 kts | 230° |
| 2026-05-05 09:21 | 39.40655 | -0.21271 | 3640 ft | 221 kts | 254° |
| 2026-05-05 09:21 | 39.40452 | -0.23200 | 3346 ft | 214 kts | 272° |
| 2026-05-05 09:21 | 39.40571 | -0.25101 | 3050 ft | 210 kts | 277° |
| 2026-05-05 09:22 | 39.40917 | -0.26892 | 2749 ft | 207 kts | 291° |
| 2026-05-05 09:22 | 39.41910 | -0.29624 | 2348 ft | 195 kts | 296° |
| 2026-05-05 09:22 | 39.42684 | -0.31657 | 2272 ft | 182 kts | 296° |
| 2026-05-05 09:23 | 39.43242 | -0.33135 | 2218 ft | 185 kts | 296° |
| 2026-05-05 09:23 | 39.43802 | -0.34616 | 2161 ft | 178 kts | 296° |
| 2026-05-05 09:23 | 39.44335 | -0.36021 | 2026 ft | 173 kts | 296° |
| 2026-05-05 09:23 | 39.44865 | -0.37423 | 1812 ft | 173 kts | 295° |
| 2026-05-05 09:24 | 39.45386 | -0.38806 | 1585 ft | 172 kts | 295° |
| 2026-05-05 09:24 | 39.45562 | -0.39270 | 1506 ft | 170 kts | 295° |